Time;durP1;ratioP1;P1;durP2;ratioP2;P2;SDS_P1;SDS_P2;PMS_P1;PMS_P2;Temp;Humidity;BMP_temperature;BMP_pressure;BME280_temperature;BME280_humidity;BME280_pressure;Samples;Min_cycle;Max_cycle;Signal;HPM_P1;HPM_P2
2021/05/18 00:02:19;;;;;;;0.80;0.63;;;11.70;99.90;;;;;;5012790;28;20018;-67
2021/05/18 00:04:45;;;;;;;0.63;0.63;;;11.70;99.90;;;;;;5012819;28;20068;-67
2021/05/18 00:07:15;;;;;;;0.73;0.73;;;11.70;99.90;;;;;;5012582;28;20018;-67
2021/05/18 00:12:26;;;;;;;0.50;0.50;;;11.70;99.90;;;;;;4999400;28;20080;-67
2021/05/18 00:14:52;;;;;;;0.80;0.80;;;11.60;99.90;;;;;;5012818;28;20058;-67
2021/05/18 00:17:17;;;;;;;0.80;0.65;;;11.60;99.90;;;;;;5012441;28;20425;-67
2021/05/18 00:19:43;;;;;;;0.63;0.63;;;11.60;99.90;;;;;;5012594;28;20040;-67
2021/05/18 00:22:09;;;;;;;0.60;0.60;;;11.60;99.90;;;;;;5012534;28;20080;-67
2021/05/18 00:24:35;;;;;;;0.57;0.57;;;11.60;99.90;;;;;;5012647;28;20034;-67
2021/05/18 00:27:03;;;;;;;2.72;0.93;;;11.60;99.90;;;;;;5012477;28;20029;-67
2021/05/18 00:29:32;;;;;;;1.10;0.68;;;11.50;99.90;;;;;;5011240;28;20424;-67
2021/05/18 00:31:58;;;;;;;0.70;0.70;;;11.50;99.90;;;;;;5012342;28;20033;-67
2021/05/18 00:34:24;;;;;;;1.05;0.77;;;11.50;99.90;;;;;;5012219;28;20487;-67
2021/05/18 00:36:50;;;;;;;0.70;0.60;;;11.50;99.90;;;;;;5012042;28;20493;-67
2021/05/18 00:39:18;;;;;;;2.38;0.80;;;11.50;99.90;;;;;;5010757;28;20029;-67
2021/05/18 00:41:45;;;;;;;0.90;0.80;;;11.50;99.90;;;;;;5012318;28;20022;-67
2021/05/18 00:44:11;;;;;;;0.80;0.70;;;11.40;99.90;;;;;;5012101;28;20025;-67
2021/05/18 00:46:37;;;;;;;0.75;0.70;;;11.40;99.90;;;;;;5011930;28;20030;-67
2021/05/18 00:49:04;;;;;;;0.93;0.82;;;11.40;99.90;;;;;;5011791;28;20022;-67
2021/05/18 00:51:30;;;;;;;2.72;0.70;;;11.40;99.90;;;;;;5012149;28;20128;-67
2021/05/18 00:53:58;;;;;;;2.65;1.00;;;11.40;99.90;;;;;;5011894;28;20021;-67
2021/05/18 00:58:58;;;;;;;0.70;0.70;;;11.40;99.90;;;;;;5011912;28;20409;-67
2021/05/18 01:01:24;;;;;;;0.70;0.70;;;11.40;99.90;;;;;;5011743;28;20030;-67
2021/05/18 01:03:52;;;;;;;1.48;0.80;;;11.40;99.90;;;;;;5011984;28;20022;-67
2021/05/18 01:06:30;;;;;;;0.77;0.77;;;11.30;99.90;;;;;;5011784;28;20532;-67
2021/05/18 01:09:14;;;;;;;0.80;0.80;;;11.30;99.90;;;;;;5012098;28;20029;-67
2021/05/18 01:11:44;;;;;;;1.63;0.80;;;11.20;99.90;;;;;;5011641;28;20053;-67
2021/05/18 01:14:17;;;;;;;1.00;1.00;;;11.20;99.90;;;;;;5011965;28;20394;-67
2021/05/18 01:16:46;;;;;;;0.70;0.70;;;11.10;99.90;;;;;;5011283;28;20352;-67
2021/05/18 01:19:14;;;;;;;2.35;0.90;;;11.10;99.90;;;;;;5011573;28;20052;-67
2021/05/18 01:21:41;;;;;;;0.90;0.90;;;11.00;99.90;;;;;;5011882;28;20041;-66
2021/05/18 01:24:08;;;;;;;1.10;1.00;;;11.00;99.90;;;;;;5011693;28;20050;-67
2021/05/18 01:26:35;;;;;;;1.23;0.90;;;11.00;99.90;;;;;;5011635;28;20063;-66
2021/05/18 01:29:03;;;;;;;1.00;1.00;;;10.90;99.90;;;;;;5011803;28;20063;-67
2021/05/18 01:31:30;;;;;;;1.30;1.20;;;10.90;99.90;;;;;;5011370;28;20041;-67
2021/05/18 01:33:59;;;;;;;1.00;1.00;;;10.90;99.90;;;;;;5011592;28;20384;-66
2021/05/18 01:36:25;;;;;;;1.17;1.13;;;10.90;99.90;;;;;;5011183;28;20563;-66
2021/05/18 01:44:07;;;;;;;1.40;1.30;;;10.90;99.90;;;;;;5011865;28;20536;-67
2021/05/18 01:46:33;;;;;;;2.05;1.60;;;10.90;99.90;;;;;;5011835;28;20382;-67
2021/05/18 01:49:03;;;;;;;1.60;1.50;;;10.90;99.90;;;;;;5011582;28;20026;-67
2021/05/18 01:51:36;;;;;;;2.03;1.90;;;10.90;99.90;;;;;;5011347;28;20029;-67
2021/05/18 01:54:07;;;;;;;2.05;1.95;;;10.90;99.90;;;;;;5011531;28;20257;-67
2021/05/18 01:59:06;;;;;;;1.92;1.83;;;10.90;99.90;;;;;;5011407;28;20092;-67
2021/05/18 02:01:33;;;;;;;3.05;2.45;;;10.90;99.90;;;;;;5011429;28;20025;-67
2021/05/18 02:03:59;;;;;;;2.15;2.05;;;10.80;99.90;;;;;;4997784;28;20100;-67
2021/05/18 02:06:26;;;;;;;2.88;2.38;;;10.90;99.90;;;;;;5011088;28;20030;-67
2021/05/18 02:08:52;;;;;;;2.42;2.22;;;10.80;99.90;;;;;;5011181;28;20105;-67
2021/05/18 02:11:18;;;;;;;3.17;2.80;;;10.80;99.90;;;;;;5011022;28;20120;-67
2021/05/18 02:13:48;;;;;;;2.75;2.55;;;10.90;99.90;;;;;;5011036;28;20030;-67
2021/05/18 02:16:33;;;;;;;3.65;2.70;;;10.90;99.90;;;;;;5011360;28;20033;-67
2021/05/18 02:19:15;;;;;;;3.22;2.92;;;10.90;99.90;;;;;;4993566;28;20110;-67
2021/05/18 02:24:44;;;;;;;5.88;2.65;;;10.90;99.90;;;;;;5010921;28;20084;-67
2021/05/18 02:27:10;;;;;;;2.78;2.58;;;10.90;99.90;;;;;;5010901;28;20018;-67
2021/05/18 02:29:36;;;;;;;2.92;2.72;;;10.90;99.90;;;;;;5013625;28;20036;-67
2021/05/18 02:32:02;;;;;;;2.63;2.42;;;10.90;99.90;;;;;;5014434;28;20037;-67
2021/05/18 02:34:28;;;;;;;3.10;2.80;;;10.80;99.90;;;;;;5013029;28;20548;-67
2021/05/18 02:36:54;;;;;;;2.80;2.60;;;10.80;99.90;;;;;;5014155;28;20462;-66
2021/05/18 02:39:19;;;;;;;3.85;2.72;;;10.80;99.90;;;;;;5014071;28;20030;-67
2021/05/18 02:41:45;;;;;;;2.75;2.55;;;10.80;99.90;;;;;;5014707;28;20076;-67
2021/05/18 02:49:27;;;;;;;3.30;3.00;;;10.80;99.90;;;;;;5014443;28;20056;-68
2021/05/18 02:51:53;;;;;;;5.75;3.30;;;10.80;99.90;;;;;;5013908;28;20482;-68
2021/05/18 02:54:24;;;;;;;3.50;3.20;;;10.80;99.90;;;;;;5012912;28;20479;-68
2021/05/18 02:57:01;;;;;;;2.90;2.63;;;10.80;99.90;;;;;;5014184;28;20036;-68
2021/05/18 02:59:28;;;;;;;2.70;2.50;;;10.80;99.90;;;;;;5013913;28;20018;-68
2021/05/18 03:02:01;;;;;;;3.03;2.72;;;10.80;99.90;;;;;;5013989;28;20080;-68
2021/05/18 03:04:28;;;;;;;2.60;2.40;;;10.80;99.90;;;;;;5014092;28;20040;-68
2021/05/18 03:06:54;;;;;;;2.35;2.15;;;10.70;99.90;;;;;;5013964;28;20036;-68
2021/05/18 03:09:21;;;;;;;2.85;2.55;;;10.80;99.90;;;;;;5014049;28;20057;-68
2021/05/18 03:11:49;;;;;;;2.70;2.50;;;10.70;99.90;;;;;;5013746;28;20396;-68
2021/05/18 03:14:16;;;;;;;2.50;2.30;;;10.80;99.90;;;;;;5013553;28;20386;-69
2021/05/18 03:16:43;;;;;;;2.63;2.42;;;10.70;99.90;;;;;;5013973;28;20033;-68
2021/05/18 03:19:11;;;;;;;2.45;2.25;;;10.70;99.90;;;;;;5013969;28;20018;-68
2021/05/18 03:21:38;;;;;;;2.83;2.63;;;10.80;99.90;;;;;;5013843;28;20083;-68
2021/05/18 03:24:05;;;;;;;2.47;2.28;;;10.70;99.90;;;;;;5013534;28;20358;-68
2021/05/18 03:26:32;;;;;;;3.08;2.13;;;10.70;99.90;;;;;;5013754;28;20033;-68
2021/05/18 03:29:00;;;;;;;2.95;2.65;;;10.70;99.90;;;;;;5013271;28;20117;-68
2021/05/18 03:37:02;;;;;;;2.53;2.33;;;10.70;99.90;;;;;;5013111;28;20512;-68
2021/05/18 03:39:28;;;;;;;3.15;2.85;;;10.70;99.90;;;;;;5012686;28;20532;-67
2021/05/18 03:42:07;;;;;;;2.50;2.25;;;10.80;99.90;;;;;;5013371;28;20022;-68
2021/05/18 03:44:48;;;;;;;2.60;2.40;;;10.70;99.90;;;;;;5013074;28;20022;-67
2021/05/18 04:17:03;;;;;;;2.78;2.58;;;10.90;99.90;;;;;;5012617;28;20117;-68
2021/05/18 04:19:34;;;;;;;3.22;2.75;;;11.00;99.90;;;;;;5012698;28;20097;-68
2021/05/18 04:40:55;;;;;;;3.13;2.83;;;11.40;99.90;;;;;;5011693;28;20080;-72
2021/05/18 04:51:24;;;;;;;3.10;2.80;;;11.30;99.90;;;;;;5011160;28;20172;-69
2021/05/18 04:54:10;;;;;;;3.47;2.83;;;11.30;99.90;;;;;;5011147;28;20022;-68
2021/05/18 05:07:14;;;;;;;2.30;2.10;;;11.40;99.90;;;;;;4988720;28;20516;-68
2021/05/18 05:09:43;;;;;;;2.22;2.03;;;11.50;99.90;;;;;;4991514;28;20596;-68
2021/05/18 05:14:47;;;;;;;1.77;1.67;;;11.50;99.90;;;;;;5009004;28;20080;-68
2021/05/18 05:17:13;;;;;;;1.90;1.80;;;11.50;99.90;;;;;;5007045;28;20029;-69
2021/05/18 05:19:39;;;;;;;4.00;1.80;;;11.60;99.90;;;;;;5011079;28;20022;-68
2021/05/18 05:22:06;;;;;;;2.08;1.88;;;11.70;99.90;;;;;;5011625;28;20052;-66
2021/05/18 05:24:33;;;;;;;2.53;1.80;;;11.90;99.90;;;;;;5007329;28;20029;-67
2021/05/18 05:27:00;;;;;;;1.70;1.60;;;11.90;99.90;;;;;;5011631;28;20030;-66
2021/05/18 05:29:26;;;;;;;1.55;1.40;;;12.00;99.90;;;;;;5011469;28;20026;-64
2021/05/18 05:31:55;;;;;;;1.73;1.60;;;12.00;99.90;;;;;;5011456;28;20042;-67
2021/05/18 05:34:21;;;;;;;1.30;1.20;;;12.60;99.90;;;;;;5011541;28;20022;-67
2021/05/18 05:36:47;;;;;;;2.75;1.45;;;12.60;99.90;;;;;;5011329;28;20050;-67
2021/05/18 05:39:24;;;;;;;1.73;1.33;;;12.50;99.90;;;;;;5011264;28;20474;-67
2021/05/18 05:41:52;;;;;;;3.70;1.30;;;12.40;99.90;;;;;;5011522;28;20592;-67
2021/05/18 05:44:18;;;;;;;1.60;1.50;;;12.30;99.90;;;;;;5011715;28;20385;-67
2021/05/18 05:46:44;;;;;;;1.45;1.35;;;12.40;99.90;;;;;;5011405;28;20028;-67
2021/05/18 05:49:10;;;;;;;1.35;1.25;;;12.50;99.90;;;;;;5011336;28;20022;-77
2021/05/18 05:51:37;;;;;;;2.70;1.65;;;12.80;99.90;;;;;;5011257;28;20042;-70
2021/05/18 05:54:03;;;;;;;1.55;1.38;;;13.20;99.90;;;;;;5011296;28;20010;-71
2021/05/18 05:56:29;;;;;;;1.23;1.13;;;13.40;99.90;;;;;;5011239;28;20026;-71
2021/05/18 05:58:55;;;;;;;1.83;1.00;;;13.50;99.90;;;;;;5011284;28;20026;-71
2021/05/18 06:01:21;;;;;;;0.93;0.93;;;13.50;99.90;;;;;;5011074;28;20033;-73
2021/05/18 06:03:47;;;;;;;1.35;1.00;;;13.50;99.90;;;;;;5014081;28;20026;-73
2021/05/18 06:06:13;;;;;;;1.23;1.13;;;13.40;99.90;;;;;;5015083;28;20033;-76
2021/05/18 06:08:43;;;;;;;1.98;1.00;;;13.30;99.90;;;;;;5014513;28;20029;-73
2021/05/18 06:34:08;;;;;;;2.90;0.95;;;13.50;99.90;;;;;;5013940;28;20036;-75
2021/05/18 06:43:47;;;;;;;0.65;0.65;;;15.30;99.90;;;;;;5011271;28;20141;-75
2021/05/18 06:46:45;;;;;;;0.82;0.70;;;15.50;99.90;;;;;;5013891;28;20036;-74
2021/05/18 06:49:10;;;;;;;2.53;0.82;;;15.90;99.90;;;;;;5003166;28;20029;-75
2021/05/18 06:51:36;;;;;;;4.18;0.95;;;15.80;99.90;;;;;;5013494;28;20042;-74
2021/05/18 06:54:02;;;;;;;4.05;0.70;;;16.20;99.90;;;;;;5010800;28;20018;-75
2021/05/18 06:56:33;;;;;;;2.08;0.70;;;16.50;99.90;;;;;;5013888;28;20440;-74
2021/05/18 07:01:28;;;;;;;2.47;0.73;;;16.50;99.90;;;;;;5012985;28;20096;-75
2021/05/18 07:03:55;;;;;;;0.80;0.80;;;16.00;99.90;;;;;;5012566;28;20026;-75
2021/05/18 07:11:18;;;;;;;1.08;0.88;;;15.60;99.90;;;;;;5012407;28;20079;-75
2021/05/18 07:13:44;;;;;;;2.65;0.68;;;15.70;99.90;;;;;;5010449;28;20160;-75
2021/05/18 07:16:09;;;;;;;1.05;0.60;;;15.80;99.90;;;;;;5012656;28;20114;-75
2021/05/18 07:18:35;;;;;;;1.27;0.60;;;15.90;99.90;;;;;;5009979;28;20018;-80
2021/05/18 07:21:02;;;;;;;1.10;0.70;;;16.00;99.90;;;;;;5013444;28;20022;-86
2021/05/18 07:23:28;;;;;;;5.47;0.90;;;16.00;99.90;;;;;;5012406;28;20054;-70
2021/05/18 07:25:54;;;;;;;0.82;0.80;;;16.00;99.90;;;;;;5013231;28;20029;-71
2021/05/18 07:28:20;;;;;;;0.57;0.57;;;16.00;99.90;;;;;;5013543;28;20033;-70
2021/05/18 07:30:48;;;;;;;0.60;0.60;;;15.90;99.90;;;;;;5013177;28;20080;-70
2021/05/18 07:33:14;;;;;;;2.83;0.70;;;15.80;99.90;;;;;;5013364;28;20508;-70
2021/05/18 07:35:42;;;;;;;2.13;1.05;;;15.80;99.90;;;;;;5013068;28;20030;-70
2021/05/18 07:38:07;;;;;;;1.30;0.88;;;15.80;99.90;;;;;;5013230;28;20030;-70
2021/05/18 07:40:33;;;;;;;2.40;1.10;;;15.80;99.90;;;;;;5013215;28;20367;-70
2021/05/18 07:43:00;;;;;;;3.15;0.80;;;15.70;99.90;;;;;;5013232;28;20042;-70
2021/05/18 07:45:27;;;;;;;1.23;1.10;;;15.80;99.90;;;;;;5013440;28;20108;-70
2021/05/18 07:47:59;;;;;;;2.08;0.77;;;15.80;99.90;;;;;;5013425;28;20113;-70
2021/05/18 07:50:40;;;;;;;9.70;1.83;;;15.80;99.90;;;;;;5013099;28;20034;-71
2021/05/18 08:06:46;;;;;;;2.70;1.33;;;15.50;99.90;;;;;;5013064;28;20477;-71
2021/05/18 08:09:12;;;;;;;6.13;1.35;;;15.50;99.90;;;;;;5012589;28;20030;-70
2021/05/18 08:11:38;;;;;;;1.98;1.10;;;15.50;99.90;;;;;;5012678;28;20041;-71
2021/05/18 08:14:04;;;;;;;1.75;0.93;;;15.50;99.90;;;;;;5012444;28;20053;-71
2021/05/18 09:41:51;;;;;;;1.50;1.00;;;15.90;99.90;;;;;;5011420;28;20504;-76
2021/05/18 10:27:14;;;;;;;1.13;0.98;;;16.20;99.90;;;;;;5014891;28;20041;-74
2021/05/18 10:34:47;;;;;;;1.42;1.20;;;16.00;99.90;;;;;;5014813;28;20417;-74
2021/05/18 10:37:23;;;;;;;1.83;1.73;;;15.90;99.90;;;;;;5014356;28;20072;-75
2021/05/18 10:40:25;;;;;;;3.85;1.80;;;15.90;99.90;;;;;;5014287;28;20041;-74
2021/05/18 10:43:11;;;;;;;2.65;1.40;;;15.90;99.90;;;;;;5014275;28;20687;-74
2021/05/18 10:45:55;;;;;;;1.90;1.80;;;15.90;99.90;;;;;;5013955;28;20041;-75
2021/05/18 10:48:36;;;;;;;3.72;1.40;;;15.90;99.90;;;;;;5013965;28;20041;-74
2021/05/18 10:51:21;;;;;;;3.08;1.20;;;15.80;99.90;;;;;;5014108;28;20029;-74
2021/05/18 10:54:21;;;;;;;5.75;1.70;;;15.90;99.90;;;;;;5013704;28;20054;-74
2021/05/18 10:56:53;;;;;;;5.00;1.60;;;15.90;99.90;;;;;;4987903;28;20045;-74
2021/05/18 10:59:23;;;;;;;1.42;1.33;;;15.70;99.90;;;;;;5014089;28;20021;-74
2021/05/18 11:01:49;;;;;;;11.80;2.00;;;15.60;99.90;;;;;;5013940;28;20021;-74
2021/05/18 11:04:15;;;;;;;8.50;1.52;;;15.50;99.90;;;;;;5013628;28;20101;-75
2021/05/18 11:06:53;;;;;;;4.32;1.15;;;15.50;99.90;;;;;;5013803;28;20157;-74
2021/05/18 11:09:20;;;;;;;3.45;1.42;;;15.50;99.90;;;;;;5014117;28;20034;-74
2021/05/18 11:11:47;;;;;;;3.03;1.10;;;15.60;99.90;;;;;;5013883;28;20029;-75
2021/05/18 11:14:16;;;;;;;1.73;1.20;;;15.70;99.90;;;;;;5013623;28;20018;-74
2021/05/18 11:16:43;;;;;;;13.43;1.73;;;15.80;99.90;;;;;;5013536;28;20473;-74
2021/05/18 11:19:10;;;;;;;5.07;1.67;;;15.70;99.90;;;;;;5013932;28;20120;-74
2021/05/18 11:21:39;;;;;;;2.15;1.40;;;15.70;99.90;;;;;;5013514;28;20022;-74
2021/05/18 11:24:10;;;;;;;2.63;1.45;;;15.60;99.90;;;;;;5013779;28;20417;-74
2021/05/18 11:26:47;;;;;;;1.60;1.30;;;15.50;99.90;;;;;;5013566;28;20113;-74
2021/05/18 11:29:12;;;;;;;6.20;1.55;;;15.60;99.90;;;;;;5013751;28;20026;-74
2021/05/18 11:31:39;;;;;;;3.83;1.50;;;15.60;99.90;;;;;;5013622;28;20417;-75
2021/05/18 11:34:05;;;;;;;4.50;1.80;;;15.70;99.90;;;;;;5013720;28;20073;-74
2021/05/18 11:36:40;;;;;;;3.45;1.80;;;15.70;99.90;;;;;;5013002;28;20424;-75
2021/05/18 11:39:13;;;;;;;14.77;2.20;;;15.40;99.90;;;;;;5013322;28;20028;-75
2021/05/18 11:41:42;;;;;;;7.20;1.55;;;15.20;99.90;;;;;;5013426;28;20030;-74
2021/05/18 11:44:10;;;;;;;3.92;1.38;;;15.00;99.90;;;;;;4995563;28;20040;-74
2021/05/18 11:46:47;;;;;;;5.80;1.50;;;15.00;99.90;;;;;;5011732;28;20125;-75
2021/05/18 11:49:14;;;;;;;3.08;1.65;;;14.90;99.90;;;;;;5013265;28;20032;-75
2021/05/18 11:51:44;;;;;;;5.47;1.77;;;14.80;99.90;;;;;;5012931;28;20059;-74
2021/05/18 11:54:12;;;;;;;3.83;1.75;;;14.80;99.90;;;;;;5011807;28;20022;-74
2021/05/18 11:56:39;;;;;;;3.67;1.42;;;14.80;99.90;;;;;;5012775;28;20065;-74
2021/05/18 11:59:05;;;;;;;2.40;1.73;;;14.80;99.90;;;;;;5013033;28;20030;-74
2021/05/18 12:01:56;;;;;;;4.47;1.80;;;14.60;99.90;;;;;;5012644;28;20018;-74
2021/05/18 12:04:24;;;;;;;1.63;1.20;;;14.70;99.90;;;;;;5012454;28;20580;-75
2021/05/18 12:07:04;;;;;;;1.50;1.20;;;14.80;99.90;;;;;;5012952;28;20036;-74
2021/05/18 12:09:35;;;;;;;6.43;1.48;;;14.90;99.90;;;;;;5013132;28;20080;-74
2021/05/18 12:12:07;;;;;;;2.10;1.48;;;14.80;99.90;;;;;;5012704;28;20034;-74
2021/05/18 12:14:47;;;;;;;2.35;1.33;;;14.70;99.90;;;;;;5012771;28;20057;-74
2021/05/18 12:17:13;;;;;;;2.55;1.55;;;14.70;99.90;;;;;;5012776;28;20033;-74
2021/05/18 12:19:39;;;;;;;3.15;1.30;;;14.60;99.90;;;;;;5012921;28;20507;-74
2021/05/18 12:22:06;;;;;;;1.30;1.05;;;14.70;99.90;;;;;;5012607;28;20478;-74
2021/05/18 12:24:39;;;;;;;15.38;2.03;;;14.80;99.90;;;;;;5012959;28;20121;-74
2021/05/18 12:27:05;;;;;;;3.05;1.20;;;14.80;99.90;;;;;;5012522;28;20014;-74
2021/05/18 12:29:37;;;;;;;4.10;1.50;;;14.80;99.90;;;;;;5012792;28;20033;-74
2021/05/18 12:32:23;;;;;;;3.15;1.48;;;14.80;99.90;;;;;;5012571;28;20030;-74
2021/05/18 12:34:52;;;;;;;4.18;1.50;;;14.90;99.90;;;;;;5011569;28;20097;-74
2021/05/18 12:37:31;;;;;;;1.65;1.55;;;14.90;99.90;;;;;;5012236;28;20041;-74
2021/05/18 12:39:56;;;;;;;12.13;1.48;;;14.90;99.90;;;;;;5011985;28;20083;-74
2021/05/18 12:42:27;;;;;;;5.00;1.38;;;14.90;99.90;;;;;;5012426;28;20026;-73
2021/05/18 12:44:59;;;;;;;2.20;1.20;;;15.00;99.90;;;;;;5012062;28;20484;-74
2021/05/18 12:47:31;;;;;;;4.22;0.95;;;15.00;99.90;;;;;;5012476;28;20084;-74
2021/05/18 12:49:57;;;;;;;3.28;1.40;;;15.10;99.90;;;;;;5011962;28;20349;-74
2021/05/18 12:52:23;;;;;;;2.20;1.10;;;15.10;99.90;;;;;;5012237;28;20042;-74
2021/05/18 12:54:55;;;;;;;2.88;1.20;;;15.10;99.90;;;;;;5012323;28;20057;-74
2021/05/18 12:57:26;;;;;;;1.02;0.82;;;15.20;99.90;;;;;;5011198;28;20030;-74
2021/05/18 13:00:00;;;;;;;0.88;0.82;;;15.20;99.90;;;;;;5012050;28;20021;-74
2021/05/18 13:02:35;;;;;;;8.05;1.10;;;15.20;99.90;;;;;;5012112;28;20018;-74
2021/05/18 13:05:16;;;;;;;6.13;0.98;;;15.30;99.90;;;;;;5011715;28;20057;-75
2021/05/18 13:07:44;;;;;;;5.50;0.90;;;15.40;99.90;;;;;;5011817;28;20018;-74
2021/05/18 13:10:15;;;;;;;3.70;0.80;;;15.40;99.90;;;;;;5012111;28;20075;-74
2021/05/18 13:12:40;;;;;;;;;;;15.40;99.60;;;;;;5011218;28;20490;-74
2021/05/18 13:15:09;;;;;;;1.10;0.63;;;15.40;93.20;;;;;;5012075;28;19906;-74
2021/05/18 13:17:35;;;;;;;1.88;0.82;;;15.40;96.10;;;;;;5011912;28;20093;-74
2021/05/18 13:20:08;;;;;;;1.92;0.80;;;15.40;96.70;;;;;;5011559;28;20022;-74
2021/05/18 13:22:36;;;;;;;7.97;1.00;;;15.40;95.50;;;;;;5012050;28;20022;-74
2021/05/18 13:27:58;;;;;;;6.97;0.88;;;15.40;95.50;;;;;;5011864;28;20037;-73
2021/05/18 13:30:29;;;;;;;0.75;0.75;;;15.40;94.90;;;;;;5011562;28;20026;-73
2021/05/18 13:32:55;;;;;;;1.30;0.70;;;15.50;96.20;;;;;;5011460;28;20117;-73
2021/05/18 13:35:22;;;;;;;8.98;0.90;;;15.60;95.50;;;;;;5011668;28;20022;-73
2021/05/18 13:37:49;;;;;;;1.33;0.70;;;15.60;93.80;;;;;;5011292;28;20474;-73
2021/05/18 13:40:17;;;;;;;2.83;0.82;;;15.50;93.50;;;;;;5011890;28;20026;-73
2021/05/18 13:42:43;;;;;;;1.35;0.90;;;15.60;93.10;;;;;;5011460;28;20034;-73
2021/05/18 13:45:10;;;;;;;7.95;0.93;;;15.60;92.70;;;;;;5011488;28;20030;-74
2021/05/18 13:47:37;;;;;;;4.18;0.85;;;15.60;93.30;;;;;;5011444;28;20034;-74
2021/05/18 13:50:03;;;;;;;12.75;1.13;;;15.70;93.00;;;;;;5011409;28;20022;-74
2021/05/18 13:52:29;;;;;;;0.60;0.60;;;15.60;92.50;;;;;;5010050;28;20077;-74
2021/05/18 13:54:56;;;;;;;1.60;0.65;;;15.60;93.10;;;;;;5011260;28;20025;-74
2021/05/18 13:57:22;;;;;;;2.53;0.80;;;15.70;91.80;;;;;;5011201;28;20084;-73
2021/05/18 13:59:49;;;;;;;12.70;1.20;;;15.70;91.40;;;;;;5011412;28;20022;-74
2021/05/18 14:02:18;;;;;;;3.17;0.70;;;15.70;88.70;;;;;;5011506;28;20509;-74
2021/05/18 14:04:44;;;;;;;7.97;1.50;;;15.70;86.50;;;;;;5011162;28;20478;-73
2021/05/18 14:10:18;;;;;;;4.45;0.57;;;15.60;83.20;;;;;;5001995;28;20050;-73
2021/05/18 14:12:43;;;;;;;2.72;0.55;;;15.60;84.20;;;;;;5011278;28;20070;-73
2021/05/18 14:15:10;;;;;;;1.50;0.60;;;15.60;84.40;;;;;;5011112;28;20030;-74
2021/05/18 14:17:35;;;;;;;4.35;0.73;;;15.60;83.40;;;;;;5011640;28;20599;-73
2021/05/18 14:20:02;;;;;;;8.95;1.15;;;15.50;82.10;;;;;;5010900;28;20132;-74
2021/05/18 14:22:27;;;;;;;2.85;0.70;;;15.50;80.90;;;;;;5011277;28;20106;-74
2021/05/18 14:27:19;;;;;;;14.38;8.60;;;15.50;81.80;;;;;;5014564;28;20057;-74
2021/05/18 14:29:46;;;;;;;2.90;1.27;;;15.60;81.30;;;;;;5014421;28;20381;-74
2021/05/18 14:32:12;;;;;;;1.52;0.70;;;15.60;80.60;;;;;;5015182;28;20125;-74
2021/05/18 14:34:38;;;;;;;38.90;1.80;;;15.60;81.10;;;;;;5015464;28;20424;-74
2021/05/18 14:37:04;;;;;;;1.10;0.50;;;15.70;80.40;;;;;;5015241;28;20527;-74
2021/05/18 14:44:58;;;;;;;8.52;0.90;;;15.60;79.80;;;;;;5014522;28;20088;-74
2021/05/18 14:47:27;;;;;;;0.85;0.60;;;15.60;79.80;;;;;;5015204;28;20026;-74
2021/05/18 14:55:24;;;;;;;5.03;0.55;;;15.70;79.00;;;;;;5014311;28;20386;-74
2021/05/18 14:57:50;;;;;;;1.45;0.80;;;15.70;79.70;;;;;;5013959;28;20029;-74
2021/05/18 15:00:17;;;;;;;1.80;0.70;;;15.70;79.60;;;;;;5014327;28;20102;-74
2021/05/18 15:02:43;;;;;;;8.15;1.42;;;15.80;80.00;;;;;;5014386;28;20018;-74
2021/05/18 15:05:09;;;;;;;3.60;1.17;;;15.80;79.80;;;;;;5014176;28;20049;-74
2021/05/18 15:07:35;;;;;;;4.20;0.60;;;15.80;79.40;;;;;;5013990;28;20036;-75
2021/05/18 15:10:01;;;;;;;0.50;0.50;;;15.80;78.90;;;;;;5013470;28;20443;-73
2021/05/18 15:12:27;;;;;;;1.50;0.68;;;16.00;78.40;;;;;;5013838;28;20055;-76
2021/05/18 15:14:53;;;;;;;0.40;0.40;;;16.00;78.00;;;;;;5013930;28;20547;-76
2021/05/18 15:17:19;;;;;;;4.32;0.57;;;15.90;78.40;;;;;;5013643;28;20080;-76
2021/05/18 15:19:47;;;;;;;0.52;0.50;;;15.90;78.60;;;;;;5013356;28;20021;-73
2021/05/18 15:22:13;;;;;;;1.35;0.60;;;15.90;78.40;;;;;;5013678;28;20018;-74
2021/05/18 15:24:39;;;;;;;1.77;0.60;;;15.90;78.50;;;;;;5013660;28;20022;-74
2021/05/18 15:27:05;;;;;;;1.65;0.77;;;15.90;78.70;;;;;;5012967;28;20052;-73
2021/05/18 15:29:31;;;;;;;2.63;0.77;;;15.90;79.70;;;;;;5013487;28;20056;-73
2021/05/18 15:31:58;;;;;;;3.42;0.77;;;15.90;79.60;;;;;;5013514;28;20040;-74
2021/05/18 15:34:24;;;;;;;7.60;0.73;;;15.90;79.10;;;;;;5013275;28;20022;-74
2021/05/18 15:36:50;;;;;;;2.08;1.00;;;15.90;79.90;;;;;;5012365;28;20099;-75
2021/05/18 15:39:15;;;;;;;0.98;0.60;;;16.10;79.80;;;;;;5012224;28;20410;-76
2021/05/18 15:41:41;;;;;;;0.47;0.43;;;16.10;79.00;;;;;;5013280;28;20033;-75
2021/05/18 15:44:07;;;;;;;1.00;0.60;;;16.10;78.00;;;;;;5013121;28;20018;-75
2021/05/18 15:46:33;;;;;;;1.55;0.40;;;16.00;77.40;;;;;;5013625;28;20030;-75
2021/05/18 15:48:59;;;;;;;0.55;0.55;;;16.00;77.30;;;;;;5011933;28;20044;-75
2021/05/18 15:51:25;;;;;;;1.77;0.60;;;15.90;77.70;;;;;;5012985;28;20034;-72
2021/05/18 15:53:50;;;;;;;2.08;0.50;;;15.90;77.70;;;;;;5012769;28;20440;-71
2021/05/18 15:56:17;;;;;;;0.38;0.38;;;16.20;80.00;;;;;;5013074;28;20075;-76
2021/05/18 15:58:44;;;;;;;0.50;0.50;;;16.50;79.70;;;;;;5013185;28;20084;-77
2021/05/18 16:01:09;;;;;;;2.47;0.50;;;16.50;76.40;;;;;;5012895;28;20022;-76
2021/05/18 16:03:35;;;;;;;0.68;0.65;;;16.40;76.90;;;;;;5013287;28;20041;-76
2021/05/18 16:06:03;;;;;;;0.60;0.60;;;16.20;76.40;;;;;;5013111;28;20018;-76
2021/05/18 16:10:54;;;;;;;0.57;0.45;;;16.20;79.40;;;;;;5013374;28;20022;-76
2021/05/18 16:13:21;;;;;;;0.50;0.50;;;16.20;78.20;;;;;;5013061;28;20113;-78
2021/05/18 16:15:46;;;;;;;0.52;0.50;;;16.20;78.10;;;;;;5013044;28;20536;-76
2021/05/18 16:18:12;;;;;;;0.52;0.50;;;16.10;76.90;;;;;;5012690;28;20021;-74
2021/05/18 16:20:38;;;;;;;1.73;0.60;;;16.20;80.10;;;;;;5012557;28;20466;-76
2021/05/18 16:23:05;;;;;;;0.43;0.43;;;16.60;81.10;;;;;;5012600;28;20101;-76
2021/05/18 16:25:31;;;;;;;2.05;0.57;;;16.70;75.90;;;;;;5012903;28;20029;-76
2021/05/18 16:27:56;;;;;;;1.20;0.60;;;16.50;74.60;;;;;;5012437;28;20412;-76
2021/05/18 16:30:22;;;;;;;0.60;0.60;;;16.30;75.20;;;;;;5012733;28;20141;-76
2021/05/18 16:32:48;;;;;;;0.50;0.50;;;16.30;76.50;;;;;;5012602;28;20061;-75
2021/05/18 16:35:14;;;;;;;2.90;0.85;;;16.20;77.90;;;;;;5012432;28;20100;-76
2021/05/18 16:37:40;;;;;;;0.60;0.45;;;16.20;77.40;;;;;;5012530;28;20049;-75
2021/05/18 16:40:07;;;;;;;0.50;0.50;;;16.10;77.10;;;;;;5012192;28;20390;-76
2021/05/18 16:42:35;;;;;;;1.73;0.50;;;16.10;77.50;;;;;;5012585;28;20022;-75
2021/05/18 16:45:01;;;;;;;3.58;0.60;;;16.10;77.50;;;;;;5012153;28;20409;-76
2021/05/18 16:47:27;;;;;;;4.10;0.68;;;16.10;77.30;;;;;;5011425;28;20038;-76
2021/05/18 16:49:53;;;;;;;0.73;0.55;;;16.10;78.00;;;;;;5012523;28;20033;-76
2021/05/18 16:52:19;;;;;;;0.57;0.40;;;16.10;77.10;;;;;;5012404;28;20042;-76
2021/05/18 16:54:44;;;;;;;0.70;0.50;;;16.00;77.80;;;;;;5012385;28;20413;-76
2021/05/18 16:57:11;;;;;;;2.85;0.65;;;16.00;77.40;;;;;;5012059;28;20030;-75
2021/05/18 16:59:37;;;;;;;0.98;0.60;;;16.00;79.00;;;;;;5012168;28;20026;-80
2021/05/18 17:02:04;;;;;;;2.42;0.70;;;16.00;78.00;;;;;;5011964;28;20026;-80
2021/05/18 17:04:30;;;;;;;2.25;0.50;;;16.00;77.70;;;;;;5012603;28;20032;-80
2021/05/18 17:06:57;;;;;;;8.18;0.75;;;16.00;77.80;;;;;;5012123;28;20026;-81
2021/05/18 17:09:23;;;;;;;1.23;0.52;;;16.00;78.40;;;;;;5012519;28;20025;-80
2021/05/18 17:11:48;;;;;;;1.42;0.60;;;16.00;78.90;;;;;;5012842;28;20401;-87
2021/05/18 17:14:14;;;;;;;0.50;0.38;;;16.00;78.80;;;;;;5013640;28;20080;-89
2021/05/18 17:16:40;;;;;;;0.50;0.50;;;16.00;78.20;;;;;;5011877;28;20076;-81
2021/05/18 17:19:07;;;;;;;0.68;0.57;;;16.00;78.00;;;;;;5011846;28;20371;-86
2021/05/18 17:21:34;;;;;;;0.40;0.40;;;16.00;77.40;;;;;;5008417;28;20120;-84
2021/05/18 17:23:59;;;;;;;2.05;0.50;;;16.00;76.80;;;;;;5008952;28;20026;-84
2021/05/18 17:26:25;;;;;;;1.65;0.73;;;16.00;77.00;;;;;;5009306;28;20109;-86
2021/05/18 17:28:52;;;;;;;4.10;0.57;;;16.00;77.10;;;;;;5007203;28;20053;-84
2021/05/18 17:31:17;;;;;;;0.60;0.60;;;16.00;77.40;;;;;;4993975;28;20030;-80
2021/05/18 17:33:44;;;;;;;2.72;0.90;;;16.00;77.20;;;;;;5011608;28;20093;-81
2021/05/18 17:36:11;;;;;;;0.47;0.47;;;15.90;77.50;;;;;;5011165;28;20595;-80
2021/05/18 17:38:37;;;;;;;0.60;0.60;;;15.90;77.70;;;;;;5008912;28;20022;-83
2021/05/18 17:41:04;;;;;;;1.10;0.60;;;15.90;78.10;;;;;;5011400;28;20033;-82
2021/05/18 17:43:32;;;;;;;0.68;0.43;;;15.90;78.50;;;;;;4993818;28;20037;-84
2021/05/18 17:46:02;;;;;;;0.70;0.60;;;15.90;79.20;;;;;;5010753;28;20033;-82
2021/05/18 17:48:28;;;;;;;1.77;0.85;;;15.90;78.90;;;;;;5008827;28;20041;-83
2021/05/18 17:50:55;;;;;;;0.55;0.55;;;15.90;78.80;;;;;;5011385;28;20030;-83
2021/05/18 17:53:20;;;;;;;0.60;0.60;;;15.90;79.20;;;;;;5011694;28;20033;-86
2021/05/18 17:55:46;;;;;;;2.88;0.40;;;15.90;79.00;;;;;;5013000;28;20438;-84
2021/05/18 17:58:13;;;;;;;0.50;0.50;;;15.90;79.00;;;;;;5011742;28;20022;-81